Terminal Aerodrome Forecast
Issued by NWS

Home | Current Version | Previous Version | Text Only | Print | Product List | Glossary On
Versions: 1 2 3 4 5 6 7 8 9 10 11 12 13 14 15 16
000
FTUS42 KFFC 310520
TAFRYY
TAF
KRYY 310520Z 3106/0106 34004KT P6SM SCT250
     FM311000 VRB03KT P6SM SCT250
     FM311800 20003KT P6SM BKN200
     FM010000 00000KT P6SM OVC150
      AMD NOT SKED TIL 311200=

USA.gov is the U.S. government's official web portal to all federal, state and local government web resources and services.